createdAt,value
2022-10-12T00:00:58.944Z,19.11
2022-10-12T00:06:02.412Z,19.17
2022-10-12T00:10:58.911Z,18.67
2022-10-12T00:15:55.967Z,18.37
2022-10-12T00:21:00.129Z,18.26
2022-10-12T00:26:00.805Z,18.33
2022-10-12T00:30:57.824Z,18.43
2022-10-12T00:35:54.773Z,18.47
2022-10-12T00:40:51.421Z,18.40
2022-10-12T00:45:49.103Z,18.48
2022-10-12T00:50:46.301Z,18.55
2022-10-12T00:55:48.048Z,17.93
2022-10-12T01:00:44.852Z,17.43
2022-10-12T01:05:42.513Z,17.30
2022-10-12T01:10:39.161Z,17.11
2022-10-12T01:15:38.595Z,16.92
2022-10-12T01:20:40.737Z,16.69
2022-10-12T01:25:45.083Z,16.74
2022-10-12T01:30:44.026Z,16.68
2022-10-12T01:35:46.091Z,16.74
2022-10-12T01:40:46.187Z,16.75
2022-10-12T01:45:43.794Z,16.77
2022-10-12T01:50:47.839Z,16.95
2022-10-12T01:55:49.475Z,16.89
2022-10-12T02:00:52.580Z,16.92
2022-10-12T02:05:51.898Z,17.01
2022-10-12T02:10:51.881Z,17.20
2022-10-12T02:15:50.415Z,16.88
2022-10-12T02:20:48.766Z,16.93
2022-10-12T02:25:46.087Z,17.00
2022-10-12T02:30:45.206Z,17.03
2022-10-12T02:35:45.889Z,16.98
2022-10-12T02:40:45.487Z,16.96
2022-10-12T02:45:43.678Z,17.48
2022-10-12T02:50:40.705Z,17.82
2022-10-12T02:55:38.761Z,17.77
2022-10-12T03:00:35.326Z,17.32
2022-10-12T03:05:31.822Z,17.35
2022-10-12T03:10:28.486Z,17.37
2022-10-12T03:15:25.728Z,17.57
2022-10-12T03:20:22.586Z,17.71
2022-10-12T03:25:19.275Z,17.56
2022-10-12T03:30:16.104Z,17.39
2022-10-12T03:35:13.510Z,17.47
2022-10-12T03:40:10.644Z,17.60
2022-10-12T03:45:08.950Z,17.49
2022-10-12T03:50:06.301Z,17.84
2022-10-12T03:55:03.848Z,17.56
2022-10-12T04:00:02.755Z,17.73
2022-10-12T04:05:08.341Z,18.05
2022-10-12T04:10:06.463Z,18.28
2022-10-12T04:15:03.042Z,18.33
2022-10-12T04:19:59.652Z,18.45
2022-10-12T04:24:56.158Z,18.54
2022-10-12T04:29:53.406Z,17.98
2022-10-12T04:34:50.295Z,18.02
2022-10-12T04:39:46.925Z,17.69
2022-10-12T04:44:46.135Z,17.31
2022-10-12T04:49:43.410Z,17.22
2022-10-12T04:54:40.725Z,17.21
2022-10-12T04:59:40.142Z,17.36
2022-10-12T05:04:36.942Z,17.35
2022-10-12T05:09:36.875Z,17.41
2022-10-12T05:14:35.957Z,17.45
2022-10-12T05:19:34.761Z,17.50
2022-10-12T05:24:31.410Z,17.60
2022-10-12T05:29:29.035Z,17.46
2022-10-12T05:34:26.813Z,17.53
2022-10-12T05:39:23.739Z,17.95
2022-10-12T05:44:20.782Z,18.10
2022-10-12T05:49:20.763Z,18.37
2022-10-12T05:54:17.689Z,18.38
2022-10-12T05:59:14.799Z,17.79
2022-10-12T06:04:12.431Z,18.00
2022-10-12T06:09:11.729Z,17.95
2022-10-12T06:14:08.704Z,17.60
2022-10-12T06:19:06.733Z,17.24
2022-10-12T06:24:03.723Z,17.62
2022-10-12T06:29:09.633Z,17.99
2022-10-12T06:34:16.690Z,18.21
2022-10-12T06:39:20.556Z,18.42
2022-10-12T06:44:47.511Z,18.51
2022-10-12T06:49:49.180Z,18.54
2022-10-12T06:55:15.147Z,17.64
2022-10-12T07:29:34.704Z,18.65
2022-10-12T07:41:52.944Z,18.64
2022-10-12T07:47:04.870Z,18.77
2022-10-12T07:52:48.752Z,18.90
2022-10-12T07:58:51.487Z,19.03
2022-10-12T08:04:20.685Z,19.06
2022-10-12T08:09:18.243Z,19.12
2022-10-12T08:14:15.780Z,19.15
2022-10-12T08:19:12.520Z,19.16
2022-10-12T08:24:09.764Z,19.18
2022-10-12T08:29:08.118Z,19.22
2022-10-12T08:34:05.558Z,19.32
2022-10-12T08:39:04.541Z,19.35
2022-10-12T08:44:10.518Z,19.34
2022-10-12T08:49:12.700Z,19.15
2022-10-12T08:54:12.722Z,19.06
2022-10-12T08:59:12.203Z,18.39
2022-10-12T09:04:15.310Z,18.46
2022-10-12T09:09:25.662Z,18.47
2022-10-12T09:14:26.527Z,17.89
2022-10-12T09:19:27.206Z,17.83
2022-10-12T09:24:28.351Z,17.92
2022-10-12T09:29:26.782Z,17.92
2022-10-12T09:34:23.759Z,17.95
2022-10-12T09:39:24.518Z,18.09
2022-10-12T09:44:27.091Z,18.42
2022-10-12T09:49:28.311Z,18.52
2022-10-12T09:54:27.446Z,18.86
2022-10-12T09:59:27.950Z,18.88
2022-10-12T10:09:37.472Z,18.99
2022-10-12T10:14:35.257Z,19.00
2022-10-12T10:19:32.533Z,18.74
2022-10-12T10:24:32.096Z,19.20
2022-10-12T10:29:35.521Z,19.29
2022-10-12T10:34:35.387Z,18.97
2022-10-12T10:39:38.197Z,18.74
2022-10-12T10:44:36.316Z,19.14
2022-10-12T10:49:38.715Z,18.99
2022-10-12T10:54:37.897Z,19.28
2022-10-12T10:59:42.584Z,18.86
2022-10-12T11:04:42.812Z,19.07
2022-10-12T11:09:41.372Z,18.83
2022-10-12T11:14:40.538Z,18.94
2022-10-12T11:19:42.032Z,18.81
2022-10-12T11:24:42.060Z,19.06
2022-10-12T11:29:38.906Z,19.06
2022-10-12T11:34:40.715Z,19.34
2022-10-12T11:39:42.845Z,19.14
2022-10-12T11:44:43.300Z,19.17
2022-10-12T11:49:46.655Z,19.01
2022-10-12T11:54:49.352Z,19.23
2022-10-12T11:59:50.234Z,19.39
2022-10-12T12:04:50.626Z,19.65
2022-10-12T12:09:52.378Z,19.46
2022-10-12T12:15:06.714Z,19.18
2022-10-12T12:20:20.678Z,19.63
2022-10-12T12:25:19.478Z,19.31
2022-10-12T12:30:25.144Z,19.52
2022-10-12T12:35:29.482Z,19.59
2022-10-12T12:40:27.468Z,19.86
2022-10-12T12:45:41.151Z,19.61
2022-10-12T12:50:39.622Z,19.49
2022-10-12T12:55:43.292Z,19.61
2022-10-12T13:00:50.312Z,19.46
2022-10-12T13:06:01.918Z,19.38
2022-10-12T13:11:03.823Z,19.46
2022-10-12T13:16:08.301Z,19.52
2022-10-12T13:21:05.744Z,19.68
2022-10-12T13:26:05.017Z,20.00
2022-10-12T13:31:04.213Z,19.80
2022-10-12T13:36:05.351Z,19.81
2022-10-12T13:41:04.745Z,19.99
2022-10-12T13:46:01.868Z,20.02
2022-10-12T13:50:59.858Z,20.11
2022-10-12T13:56:01.732Z,20.15
2022-10-12T14:00:58.546Z,20.33
2022-10-12T14:05:56.830Z,20.43
2022-10-12T14:10:57.149Z,20.42
2022-10-12T14:15:54.827Z,20.35
2022-10-12T14:20:51.609Z,20.25
2022-10-12T14:25:52.821Z,20.31
2022-10-12T14:30:53.418Z,20.22
2022-10-12T14:36:00.257Z,20.14
2022-10-12T14:41:24.578Z,20.00
2022-10-12T14:46:33.530Z,20.12
2022-10-12T14:51:31.019Z,20.24
2022-10-12T14:56:28.148Z,20.23
2022-10-12T15:01:25.331Z,20.15
2022-10-12T15:06:23.388Z,20.15
2022-10-12T15:11:21.460Z,20.10
2022-10-12T15:16:20.761Z,20.31
2022-10-12T15:21:17.783Z,20.23
2022-10-12T15:26:15.154Z,20.05
2022-10-12T15:31:18.349Z,20.04
2022-10-12T15:36:15.840Z,20.02
2022-10-12T15:41:16.002Z,20.05
2022-10-12T15:46:13.481Z,19.94
2022-10-12T15:51:16.598Z,19.91
2022-10-12T15:56:14.660Z,19.97
2022-10-12T16:01:12.152Z,19.82
2022-10-12T16:06:10.012Z,20.00
2022-10-12T16:11:07.910Z,19.92
2022-10-12T16:16:04.618Z,19.93
2022-10-12T16:21:01.347Z,20.03
2022-10-12T16:25:59.061Z,20.17
2022-10-12T16:30:55.848Z,20.26
2022-10-12T16:35:52.617Z,20.28
2022-10-12T16:40:49.701Z,20.21
2022-10-12T16:45:54.981Z,20.07
2022-10-12T16:50:51.634Z,20.06
2022-10-12T16:55:48.635Z,20.10
2022-10-12T17:00:47.727Z,20.10
2022-10-12T17:05:45.124Z,20.22
2022-10-12T17:10:45.213Z,20.21
2022-10-12T17:15:42.308Z,20.23
2022-10-12T17:20:38.993Z,20.22
2022-10-12T17:25:36.302Z,20.21
2022-10-12T17:30:35.286Z,20.20
2022-10-12T17:35:32.044Z,20.12
2022-10-12T17:40:30.215Z,20.17
2022-10-12T17:45:27.624Z,20.16
2022-10-12T17:50:25.290Z,20.15
2022-10-12T17:55:43.537Z,20.10
2022-10-12T18:00:39.019Z,19.99
2022-10-12T18:05:35.692Z,19.94
2022-10-12T18:10:32.297Z,19.94
2022-10-12T18:15:31.027Z,19.95
2022-10-12T18:20:28.740Z,19.95
2022-10-12T18:25:25.459Z,20.02
2022-10-12T18:30:22.153Z,20.07
2022-10-12T18:35:19.105Z,19.98
2022-10-12T18:40:16.430Z,19.99
2022-10-12T18:45:13.084Z,19.90
2022-10-12T18:50:09.735Z,19.97
2022-10-12T18:55:06.586Z,19.90
2022-10-12T19:00:04.888Z,19.77
2022-10-12T19:05:01.491Z,19.67
2022-10-12T19:09:58.035Z,19.61
2022-10-12T19:14:54.807Z,19.41
2022-10-12T19:19:52.209Z,19.56
2022-10-12T19:24:48.760Z,19.63
2022-10-12T19:29:45.939Z,19.71
2022-10-12T19:34:42.587Z,19.68
2022-10-12T19:39:44.145Z,19.75
2022-10-12T19:44:41.408Z,19.71
2022-10-12T19:49:44.481Z,19.71
2022-10-12T19:54:43.144Z,19.74
2022-10-12T19:59:40.073Z,19.56
2022-10-12T20:04:39.330Z,19.71
2022-10-12T20:09:36.145Z,19.56
2022-10-12T20:14:35.647Z,19.46
2022-10-12T20:19:32.635Z,19.13
2022-10-12T20:24:29.248Z,19.01
2022-10-12T20:29:25.903Z,18.92
2022-10-12T20:34:23.372Z,18.82
2022-10-12T20:39:20.000Z,18.67
2022-10-12T20:44:16.530Z,18.71
2022-10-12T20:49:25.416Z,18.80
2022-10-12T20:54:40.956Z,18.63
2022-10-12T20:59:38.359Z,18.45
2022-10-12T21:04:38.432Z,18.41
2022-10-12T21:09:35.181Z,18.23
2022-10-12T21:14:33.784Z,18.21
2022-10-12T21:19:30.498Z,18.40
2022-10-12T21:24:28.019Z,18.10
2022-10-12T21:29:24.697Z,18.19
2022-10-12T21:34:21.431Z,18.41
2022-10-12T21:39:18.144Z,18.63
2022-10-12T21:44:15.519Z,18.73
2022-10-12T21:49:12.361Z,18.58
2022-10-12T21:54:09.237Z,18.62
2022-10-12T21:59:06.378Z,18.73
2022-10-12T22:04:07.033Z,18.74
2022-10-12T22:09:04.873Z,18.85
2022-10-12T22:14:02.595Z,18.89
2022-10-12T22:19:00.012Z,18.88
2022-10-12T22:24:02.546Z,18.93
2022-10-12T22:28:59.633Z,18.26
2022-10-12T22:33:56.998Z,18.12
2022-10-12T22:38:53.640Z,17.86
2022-10-12T22:43:51.842Z,17.63
2022-10-12T22:48:48.738Z,17.73
2022-10-12T22:53:45.263Z,17.74
2022-10-12T22:58:42.317Z,17.98
2022-10-12T23:03:40.265Z,18.24
2022-10-12T23:08:40.005Z,18.38
2022-10-12T23:13:37.517Z,18.45
2022-10-12T23:18:34.245Z,18.36
2022-10-12T23:23:31.651Z,18.37
2022-10-12T23:28:30.022Z,18.35
2022-10-12T23:33:26.777Z,18.35
2022-10-12T23:38:25.034Z,18.18
2022-10-12T23:43:26.574Z,18.07
2022-10-12T23:48:25.249Z,17.88
2022-10-12T23:53:22.814Z,17.89
2022-10-12T23:58:21.788Z,18.07
